sensor_id;sensor_type;location;lat;lon;timestamp;P1;durP1;ratioP1;P2;durP2;ratioP2
12228;SDS011;6177;52.402;9.800;2023-09-30T00:00:58;8.70;;;4.57;;
12228;SDS011;6177;52.402;9.800;2023-09-30T00:03:24;7.77;;;4.30;;
12228;SDS011;6177;52.402;9.800;2023-09-30T00:05:49;9.13;;;3.97;;
12228;SDS011;6177;52.402;9.800;2023-09-30T00:08:15;8.00;;;3.87;;
12228;SDS011;6177;52.402;9.800;2023-09-30T00:10:40;8.03;;;3.73;;
12228;SDS011;6177;52.402;9.800;2023-09-30T00:13:06;9.00;;;3.57;;
12228;SDS011;6177;52.402;9.800;2023-09-30T00:15:32;9.97;;;4.10;;
12228;SDS011;6177;52.402;9.800;2023-09-30T00:17:58;7.63;;;3.50;;
12228;SDS011;6177;52.402;9.800;2023-09-30T00:20:24;11.80;;;3.90;;
12228;SDS011;6177;52.402;9.800;2023-09-30T00:22:49;8.00;;;3.57;;
12228;SDS011;6177;52.402;9.800;2023-09-30T00:25:15;8.33;;;3.67;;
12228;SDS011;6177;52.402;9.800;2023-09-30T00:27:40;10.13;;;4.03;;
12228;SDS011;6177;52.402;9.800;2023-09-30T00:30:06;9.00;;;3.77;;
12228;SDS011;6177;52.402;9.800;2023-09-30T00:32:33;10.77;;;4.17;;
12228;SDS011;6177;52.402;9.800;2023-09-30T00:35:00;9.57;;;4.13;;
12228;SDS011;6177;52.402;9.800;2023-09-30T00:37:26;8.47;;;4.13;;
12228;SDS011;6177;52.402;9.800;2023-09-30T00:39:52;9.53;;;4.30;;
12228;SDS011;6177;52.402;9.800;2023-09-30T00:42:18;8.93;;;4.07;;
12228;SDS011;6177;52.402;9.800;2023-09-30T00:44:46;9.47;;;4.07;;
12228;SDS011;6177;52.402;9.800;2023-09-30T00:47:11;10.33;;;4.20;;
12228;SDS011;6177;52.402;9.800;2023-09-30T00:49:38;11.07;;;4.60;;
12228;SDS011;6177;52.402;9.800;2023-09-30T00:52:03;8.83;;;3.93;;
12228;SDS011;6177;52.402;9.800;2023-09-30T00:54:30;7.90;;;4.07;;
12228;SDS011;6177;52.402;9.800;2023-09-30T00:56:56;12.03;;;4.10;;
12228;SDS011;6177;52.402;9.800;2023-09-30T00:59:22;9.10;;;4.20;;
12228;SDS011;6177;52.402;9.800;2023-09-30T01:01:48;7.33;;;3.90;;
12228;SDS011;6177;52.402;9.800;2023-09-30T01:04:14;8.43;;;4.10;;
12228;SDS011;6177;52.402;9.800;2023-09-30T01:06:40;10.53;;;4.33;;
12228;SDS011;6177;52.402;9.800;2023-09-30T01:09:06;10.17;;;4.73;;
12228;SDS011;6177;52.402;9.800;2023-09-30T01:11:32;12.60;;;4.13;;
12228;SDS011;6177;52.402;9.800;2023-09-30T01:13:57;8.13;;;3.43;;
12228;SDS011;6177;52.402;9.800;2023-09-30T01:16:23;9.23;;;3.53;;
12228;SDS011;6177;52.402;9.800;2023-09-30T01:18:49;8.97;;;3.77;;
12228;SDS011;6177;52.402;9.800;2023-09-30T01:21:14;10.97;;;4.17;;
12228;SDS011;6177;52.402;9.800;2023-09-30T01:23:40;9.30;;;4.03;;
12228;SDS011;6177;52.402;9.800;2023-09-30T01:26:11;12.00;;;4.70;;
12228;SDS011;6177;52.402;9.800;2023-09-30T01:28:37;11.50;;;4.43;;
12228;SDS011;6177;52.402;9.800;2023-09-30T01:31:03;7.77;;;4.23;;
12228;SDS011;6177;52.402;9.800;2023-09-30T01:33:30;9.90;;;3.70;;
12228;SDS011;6177;52.402;9.800;2023-09-30T01:35:56;8.73;;;4.43;;
12228;SDS011;6177;52.402;9.800;2023-09-30T01:38:21;6.97;;;3.67;;
12228;SDS011;6177;52.402;9.800;2023-09-30T01:40:47;8.37;;;3.97;;
12228;SDS011;6177;52.402;9.800;2023-09-30T01:43:15;11.60;;;4.30;;
12228;SDS011;6177;52.402;9.800;2023-09-30T01:45:41;10.73;;;4.27;;
12228;SDS011;6177;52.402;9.800;2023-09-30T01:48:08;12.97;;;4.20;;
12228;SDS011;6177;52.402;9.800;2023-09-30T01:50:39;11.00;;;4.50;;
12228;SDS011;6177;52.402;9.800;2023-09-30T01:53:05;9.70;;;4.33;;
12228;SDS011;6177;52.402;9.800;2023-09-30T01:55:34;11.40;;;4.10;;
12228;SDS011;6177;52.402;9.800;2023-09-30T01:58:01;11.27;;;4.13;;
12228;SDS011;6177;52.402;9.800;2023-09-30T02:00:27;11.07;;;4.50;;
12228;SDS011;6177;52.402;9.800;2023-09-30T02:02:56;7.80;;;4.00;;
12228;SDS011;6177;52.402;9.800;2023-09-30T02:05:22;9.10;;;3.97;;
12228;SDS011;6177;52.402;9.800;2023-09-30T02:07:49;11.43;;;4.03;;
12228;SDS011;6177;52.402;9.800;2023-09-30T02:10:15;14.23;;;4.47;;
12228;SDS011;6177;52.402;9.800;2023-09-30T02:12:43;9.70;;;4.13;;
12228;SDS011;6177;52.402;9.800;2023-09-30T02:15:11;11.83;;;4.70;;
12228;SDS011;6177;52.402;9.800;2023-09-30T02:17:37;9.17;;;3.93;;
12228;SDS011;6177;52.402;9.800;2023-09-30T02:20:03;12.57;;;3.87;;
12228;SDS011;6177;52.402;9.800;2023-09-30T02:22:38;11.23;;;4.47;;
12228;SDS011;6177;52.402;9.800;2023-09-30T02:25:04;10.07;;;3.87;;
12228;SDS011;6177;52.402;9.800;2023-09-30T02:27:32;10.67;;;3.87;;
12228;SDS011;6177;52.402;9.800;2023-09-30T02:29:58;12.53;;;3.40;;
12228;SDS011;6177;52.402;9.800;2023-09-30T02:32:23;10.80;;;4.03;;
12228;SDS011;6177;52.402;9.800;2023-09-30T02:34:49;11.03;;;4.07;;
12228;SDS011;6177;52.402;9.800;2023-09-30T02:37:15;10.13;;;3.90;;
12228;SDS011;6177;52.402;9.800;2023-09-30T02:39:42;10.00;;;3.67;;
12228;SDS011;6177;52.402;9.800;2023-09-30T02:42:08;10.97;;;4.10;;
12228;SDS011;6177;52.402;9.800;2023-09-30T02:44:33;9.93;;;3.73;;
12228;SDS011;6177;52.402;9.800;2023-09-30T02:46:59;8.07;;;4.00;;
12228;SDS011;6177;52.402;9.800;2023-09-30T02:49:24;12.77;;;4.03;;
12228;SDS011;6177;52.402;9.800;2023-09-30T02:51:50;13.47;;;4.27;;
12228;SDS011;6177;52.402;9.800;2023-09-30T02:54:16;10.17;;;3.70;;
12228;SDS011;6177;52.402;9.800;2023-09-30T02:56:41;14.47;;;4.07;;
12228;SDS011;6177;52.402;9.800;2023-09-30T02:59:07;9.17;;;3.50;;
12228;SDS011;6177;52.402;9.800;2023-09-30T03:01:33;9.17;;;4.57;;
12228;SDS011;6177;52.402;9.800;2023-09-30T03:03:59;9.57;;;3.90;;
12228;SDS011;6177;52.402;9.800;2023-09-30T03:06:24;9.60;;;3.47;;
12228;SDS011;6177;52.402;9.800;2023-09-30T03:08:50;11.50;;;3.77;;
12228;SDS011;6177;52.402;9.800;2023-09-30T03:11:17;9.90;;;3.70;;
12228;SDS011;6177;52.402;9.800;2023-09-30T03:13:45;10.17;;;4.23;;
12228;SDS011;6177;52.402;9.800;2023-09-30T03:16:11;8.67;;;4.50;;
12228;SDS011;6177;52.402;9.800;2023-09-30T03:18:36;12.67;;;4.20;;
12228;SDS011;6177;52.402;9.800;2023-09-30T03:21:02;8.10;;;3.70;;
12228;SDS011;6177;52.402;9.800;2023-09-30T03:23:33;10.90;;;3.63;;
12228;SDS011;6177;52.402;9.800;2023-09-30T03:26:00;9.40;;;4.10;;
12228;SDS011;6177;52.402;9.800;2023-09-30T03:28:26;12.73;;;4.47;;
12228;SDS011;6177;52.402;9.800;2023-09-30T03:30:52;10.17;;;3.83;;
12228;SDS011;6177;52.402;9.800;2023-09-30T03:33:18;10.73;;;4.47;;
12228;SDS011;6177;52.402;9.800;2023-09-30T03:35:43;9.50;;;4.10;;
12228;SDS011;6177;52.402;9.800;2023-09-30T03:38:10;10.70;;;4.17;;
12228;SDS011;6177;52.402;9.800;2023-09-30T03:40:35;11.10;;;3.70;;
12228;SDS011;6177;52.402;9.800;2023-09-30T03:43:03;7.37;;;3.80;;
12228;SDS011;6177;52.402;9.800;2023-09-30T03:45:30;7.97;;;4.33;;
12228;SDS011;6177;52.402;9.800;2023-09-30T03:47:58;9.43;;;3.70;;
12228;SDS011;6177;52.402;9.800;2023-09-30T03:50:23;10.17;;;4.07;;
12228;SDS011;6177;52.402;9.800;2023-09-30T03:52:49;9.57;;;4.47;;
12228;SDS011;6177;52.402;9.800;2023-09-30T03:55:18;11.63;;;4.27;;
12228;SDS011;6177;52.402;9.800;2023-09-30T03:57:45;11.33;;;4.37;;
12228;SDS011;6177;52.402;9.800;2023-09-30T04:00:14;7.30;;;3.67;;
12228;SDS011;6177;52.402;9.800;2023-09-30T04:02:44;13.63;;;4.13;;
12228;SDS011;6177;52.402;9.800;2023-09-30T04:05:13;9.67;;;4.30;;
12228;SDS011;6177;52.402;9.800;2023-09-30T04:07:40;13.17;;;5.07;;
12228;SDS011;6177;52.402;9.800;2023-09-30T04:10:07;9.77;;;4.30;;
12228;SDS011;6177;52.402;9.800;2023-09-30T04:12:33;10.53;;;4.87;;
12228;SDS011;6177;52.402;9.800;2023-09-30T04:14:59;13.00;;;4.77;;
12228;SDS011;6177;52.402;9.800;2023-09-30T04:17:25;12.73;;;4.33;;
12228;SDS011;6177;52.402;9.800;2023-09-30T04:19:52;10.50;;;4.20;;
12228;SDS011;6177;52.402;9.800;2023-09-30T04:22:18;8.97;;;4.20;;
12228;SDS011;6177;52.402;9.800;2023-09-30T04:24:46;10.23;;;4.40;;
12228;SDS011;6177;52.402;9.800;2023-09-30T04:27:14;8.40;;;4.47;;
12228;SDS011;6177;52.402;9.800;2023-09-30T04:29:40;8.90;;;4.20;;
12228;SDS011;6177;52.402;9.800;2023-09-30T04:32:06;9.77;;;3.70;;
12228;SDS011;6177;52.402;9.800;2023-09-30T04:34:32;9.63;;;4.50;;
12228;SDS011;6177;52.402;9.800;2023-09-30T04:36:57;8.43;;;4.17;;
12228;SDS011;6177;52.402;9.800;2023-09-30T04:39:24;8.40;;;4.00;;
12228;SDS011;6177;52.402;9.800;2023-09-30T04:41:50;13.30;;;4.57;;
12228;SDS011;6177;52.402;9.800;2023-09-30T04:44:15;9.60;;;4.03;;
12228;SDS011;6177;52.402;9.800;2023-09-30T04:46:41;9.87;;;4.23;;
12228;SDS011;6177;52.402;9.800;2023-09-30T04:49:11;10.90;;;5.03;;
12228;SDS011;6177;52.402;9.800;2023-09-30T04:51:40;7.10;;;4.20;;
12228;SDS011;6177;52.402;9.800;2023-09-30T04:54:05;8.20;;;5.00;;
12228;SDS011;6177;52.402;9.800;2023-09-30T04:56:34;7.17;;;3.90;;
12228;SDS011;6177;52.402;9.800;2023-09-30T04:59:00;10.40;;;4.40;;
12228;SDS011;6177;52.402;9.800;2023-09-30T05:01:27;9.00;;;4.80;;
12228;SDS011;6177;52.402;9.800;2023-09-30T05:03:53;10.77;;;4.10;;
12228;SDS011;6177;52.402;9.800;2023-09-30T05:06:19;8.00;;;4.20;;
12228;SDS011;6177;52.402;9.800;2023-09-30T05:08:46;10.40;;;4.67;;
12228;SDS011;6177;52.402;9.800;2023-09-30T05:11:13;11.03;;;4.70;;
12228;SDS011;6177;52.402;9.800;2023-09-30T05:13:38;9.80;;;4.53;;
12228;SDS011;6177;52.402;9.800;2023-09-30T05:16:04;8.33;;;4.20;;
12228;SDS011;6177;52.402;9.800;2023-09-30T05:18:30;11.47;;;4.33;;
12228;SDS011;6177;52.402;9.800;2023-09-30T05:20:56;9.93;;;4.53;;
12228;SDS011;6177;52.402;9.800;2023-09-30T05:23:21;8.73;;;3.77;;
12228;SDS011;6177;52.402;9.800;2023-09-30T05:25:47;13.07;;;4.60;;
12228;SDS011;6177;52.402;9.800;2023-09-30T05:28:13;13.70;;;5.40;;
12228;SDS011;6177;52.402;9.800;2023-09-30T05:30:39;11.07;;;4.60;;
12228;SDS011;6177;52.402;9.800;2023-09-30T05:33:06;8.73;;;3.97;;
12228;SDS011;6177;52.402;9.800;2023-09-30T05:35:32;10.53;;;4.83;;
12228;SDS011;6177;52.402;9.800;2023-09-30T05:37:57;10.10;;;4.13;;
12228;SDS011;6177;52.402;9.800;2023-09-30T05:40:23;17.97;;;5.07;;
12228;SDS011;6177;52.402;9.800;2023-09-30T05:42:55;10.53;;;4.70;;
12228;SDS011;6177;52.402;9.800;2023-09-30T05:45:24;11.00;;;4.50;;
12228;SDS011;6177;52.402;9.800;2023-09-30T05:47:51;10.50;;;4.80;;
12228;SDS011;6177;52.402;9.800;2023-09-30T05:50:18;11.60;;;4.87;;
12228;SDS011;6177;52.402;9.800;2023-09-30T05:52:49;14.10;;;4.63;;
12228;SDS011;6177;52.402;9.800;2023-09-30T05:55:16;9.43;;;4.80;;
12228;SDS011;6177;52.402;9.800;2023-09-30T05:57:45;8.73;;;4.93;;
12228;SDS011;6177;52.402;9.800;2023-09-30T06:00:11;9.97;;;5.17;;
12228;SDS011;6177;52.402;9.800;2023-09-30T06:02:53;9.37;;;5.10;;
12228;SDS011;6177;52.402;9.800;2023-09-30T06:05:19;11.33;;;5.07;;
12228;SDS011;6177;52.402;9.800;2023-09-30T06:07:45;10.13;;;4.60;;
12228;SDS011;6177;52.402;9.800;2023-09-30T06:10:11;9.80;;;4.20;;
12228;SDS011;6177;52.402;9.800;2023-09-30T06:12:37;8.10;;;4.40;;
12228;SDS011;6177;52.402;9.800;2023-09-30T06:15:03;8.73;;;4.30;;
12228;SDS011;6177;52.402;9.800;2023-09-30T06:17:29;9.30;;;4.60;;
12228;SDS011;6177;52.402;9.800;2023-09-30T06:19:58;12.27;;;4.60;;
12228;SDS011;6177;52.402;9.800;2023-09-30T06:22:32;8.57;;;4.70;;
12228;SDS011;6177;52.402;9.800;2023-09-30T06:24:58;8.87;;;3.93;;
12228;SDS011;6177;52.402;9.800;2023-09-30T06:27:23;7.77;;;4.27;;
12228;SDS011;6177;52.402;9.800;2023-09-30T06:29:49;7.40;;;4.30;;
12228;SDS011;6177;52.402;9.800;2023-09-30T06:32:14;7.63;;;4.50;;
12228;SDS011;6177;52.402;9.800;2023-09-30T06:34:40;17.40;;;4.93;;
12228;SDS011;6177;52.402;9.800;2023-09-30T06:37:06;11.43;;;4.57;;
12228;SDS011;6177;52.402;9.800;2023-09-30T06:39:33;11.07;;;4.63;;
12228;SDS011;6177;52.402;9.800;2023-09-30T06:41:59;10.23;;;4.33;;
12228;SDS011;6177;52.402;9.800;2023-09-30T06:44:25;11.87;;;6.63;;
12228;SDS011;6177;52.402;9.800;2023-09-30T06:46:50;13.23;;;5.33;;
12228;SDS011;6177;52.402;9.800;2023-09-30T06:49:16;6.10;;;3.67;;
12228;SDS011;6177;52.402;9.800;2023-09-30T06:51:42;12.03;;;4.63;;
12228;SDS011;6177;52.402;9.800;2023-09-30T06:54:08;8.77;;;4.00;;
12228;SDS011;6177;52.402;9.800;2023-09-30T06:56:33;8.07;;;3.80;;
12228;SDS011;6177;52.402;9.800;2023-09-30T06:58:59;9.40;;;3.63;;
12228;SDS011;6177;52.402;9.800;2023-09-30T07:01:24;7.53;;;2.93;;
12228;SDS011;6177;52.402;9.800;2023-09-30T07:03:50;8.43;;;3.57;;
12228;SDS011;6177;52.402;9.800;2023-09-30T07:06:23;6.37;;;2.90;;
12228;SDS011;6177;52.402;9.800;2023-09-30T07:08:49;7.37;;;3.33;;
12228;SDS011;6177;52.402;9.800;2023-09-30T07:11:14;6.23;;;2.90;;
12228;SDS011;6177;52.402;9.800;2023-09-30T07:13:40;6.87;;;2.97;;
12228;SDS011;6177;52.402;9.800;2023-09-30T07:16:05;9.97;;;2.70;;
12228;SDS011;6177;52.402;9.800;2023-09-30T07:18:31;4.70;;;3.00;;
12228;SDS011;6177;52.402;9.800;2023-09-30T07:20:56;6.33;;;3.17;;
12228;SDS011;6177;52.402;9.800;2023-09-30T07:23:22;4.27;;;2.73;;
12228;SDS011;6177;52.402;9.800;2023-09-30T07:25:48;7.57;;;3.23;;
12228;SDS011;6177;52.402;9.800;2023-09-30T07:28:13;5.47;;;2.57;;
12228;SDS011;6177;52.402;9.800;2023-09-30T07:30:39;7.63;;;2.70;;
12228;SDS011;6177;52.402;9.800;2023-09-30T07:33:05;8.97;;;3.50;;
12228;SDS011;6177;52.402;9.800;2023-09-30T07:35:32;5.67;;;2.97;;
12228;SDS011;6177;52.402;9.800;2023-09-30T07:37:57;6.43;;;2.70;;
12228;SDS011;6177;52.402;9.800;2023-09-30T07:40:23;5.37;;;2.90;;
12228;SDS011;6177;52.402;9.800;2023-09-30T07:42:48;5.10;;;2.60;;
12228;SDS011;6177;52.402;9.800;2023-09-30T07:45:16;5.57;;;2.63;;
12228;SDS011;6177;52.402;9.800;2023-09-30T07:47:43;5.70;;;2.47;;
12228;SDS011;6177;52.402;9.800;2023-09-30T07:50:09;5.57;;;2.47;;
12228;SDS011;6177;52.402;9.800;2023-09-30T07:52:35;6.25;;;2.85;;
12228;SDS011;6177;52.402;9.800;2023-09-30T07:55:01;6.43;;;2.47;;
12228;SDS011;6177;52.402;9.800;2023-09-30T07:57:30;4.50;;;2.75;;
12228;SDS011;6177;52.402;9.800;2023-09-30T08:02:46;4.47;;;2.50;;
12228;SDS011;6177;52.402;9.800;2023-09-30T08:05:13;5.27;;;2.33;;
12228;SDS011;6177;52.402;9.800;2023-09-30T08:07:38;4.75;;;2.20;;
12228;SDS011;6177;52.402;9.800;2023-09-30T08:10:04;5.90;;;2.60;;
12228;SDS011;6177;52.402;9.800;2023-09-30T08:12:31;6.85;;;2.53;;
12228;SDS011;6177;52.402;9.800;2023-09-30T08:14:57;4.45;;;2.15;;
12228;SDS011;6177;52.402;9.800;2023-09-30T08:17:23;4.25;;;2.30;;
12228;SDS011;6177;52.402;9.800;2023-09-30T08:19:48;3.92;;;2.25;;
12228;SDS011;6177;52.402;9.800;2023-09-30T08:22:14;5.85;;;2.10;;
12228;SDS011;6177;52.402;9.800;2023-09-30T08:24:40;6.63;;;2.47;;
12228;SDS011;6177;52.402;9.800;2023-09-30T08:27:05;7.20;;;2.63;;
12228;SDS011;6177;52.402;9.800;2023-09-30T08:29:34;4.55;;;1.98;;
12228;SDS011;6177;52.402;9.800;2023-09-30T08:32:02;4.90;;;2.33;;
12228;SDS011;6177;52.402;9.800;2023-09-30T08:34:29;5.50;;;2.58;;
12228;SDS011;6177;52.402;9.800;2023-09-30T08:36:54;4.40;;;2.50;;
12228;SDS011;6177;52.402;9.800;2023-09-30T08:39:20;6.25;;;2.80;;
12228;SDS011;6177;52.402;9.800;2023-09-30T08:41:46;7.00;;;2.33;;
12228;SDS011;6177;52.402;9.800;2023-09-30T08:44:12;6.90;;;2.35;;
12228;SDS011;6177;52.402;9.800;2023-09-30T08:46:38;5.38;;;2.22;;
12228;SDS011;6177;52.402;9.800;2023-09-30T08:49:04;7.60;;;3.00;;
12228;SDS011;6177;52.402;9.800;2023-09-30T08:51:33;7.00;;;2.92;;
12228;SDS011;6177;52.402;9.800;2023-09-30T08:54:00;3.47;;;1.95;;
12228;SDS011;6177;52.402;9.800;2023-09-30T08:56:30;5.32;;;2.17;;
12228;SDS011;6177;52.402;9.800;2023-09-30T08:58:58;5.88;;;2.45;;
12228;SDS011;6177;52.402;9.800;2023-09-30T09:01:24;5.38;;;2.10;;
12228;SDS011;6177;52.402;9.800;2023-09-30T09:03:53;5.55;;;2.30;;
12228;SDS011;6177;52.402;9.800;2023-09-30T09:06:20;7.15;;;2.30;;
12228;SDS011;6177;52.402;9.800;2023-09-30T09:08:46;5.47;;;2.10;;
12228;SDS011;6177;52.402;9.800;2023-09-30T09:11:12;6.03;;;2.40;;
12228;SDS011;6177;52.402;9.800;2023-09-30T09:13:45;2.50;;;1.88;;
12228;SDS011;6177;52.402;9.800;2023-09-30T09:16:11;3.50;;;2.22;;
12228;SDS011;6177;52.402;9.800;2023-09-30T09:18:37;5.18;;;2.17;;
12228;SDS011;6177;52.402;9.800;2023-09-30T09:21:13;4.40;;;2.17;;
12228;SDS011;6177;52.402;9.800;2023-09-30T09:23:49;5.47;;;2.30;;
12228;SDS011;6177;52.402;9.800;2023-09-30T09:26:31;5.28;;;2.40;;
12228;SDS011;6177;52.402;9.800;2023-09-30T09:29:01;2.58;;;1.80;;
12228;SDS011;6177;52.402;9.800;2023-09-30T09:31:29;4.35;;;2.42;;
12228;SDS011;6177;52.402;9.800;2023-09-30T09:33:57;3.28;;;2.10;;
12228;SDS011;6177;52.402;9.800;2023-09-30T09:36:37;4.00;;;2.05;;
12228;SDS011;6177;52.402;9.800;2023-09-30T09:39:10;6.80;;;2.33;;
12228;SDS011;6177;52.402;9.800;2023-09-30T09:41:49;3.30;;;1.95;;
12228;SDS011;6177;52.402;9.800;2023-09-30T09:44:21;4.72;;;2.05;;
12228;SDS011;6177;52.402;9.800;2023-09-30T09:46:48;3.45;;;2.30;;
12228;SDS011;6177;52.402;9.800;2023-09-30T09:49:18;4.15;;;1.83;;
12228;SDS011;6177;52.402;9.800;2023-09-30T09:51:45;5.55;;;2.17;;
12228;SDS011;6177;52.402;9.800;2023-09-30T09:54:11;3.80;;;2.13;;
12228;SDS011;6177;52.402;9.800;2023-09-30T09:56:37;5.70;;;2.17;;
12228;SDS011;6177;52.402;9.800;2023-09-30T09:59:04;1.95;;;1.60;;
12228;SDS011;6177;52.402;9.800;2023-09-30T10:01:34;2.95;;;1.35;;
12228;SDS011;6177;52.402;9.800;2023-09-30T10:04:00;2.92;;;2.10;;
12228;SDS011;6177;52.402;9.800;2023-09-30T10:06:27;3.60;;;1.88;;
12228;SDS011;6177;52.402;9.800;2023-09-30T10:08:53;3.25;;;1.50;;
12228;SDS011;6177;52.402;9.800;2023-09-30T10:11:19;7.47;;;2.10;;
12228;SDS011;6177;52.402;9.800;2023-09-30T10:13:55;3.17;;;2.35;;
12228;SDS011;6177;52.402;9.800;2023-09-30T10:24:46;4.57;;;1.85;;
12228;SDS011;6177;52.402;9.800;2023-09-30T10:35:19;2.42;;;1.55;;
12228;SDS011;6177;52.402;9.800;2023-09-30T10:37:46;4.38;;;1.92;;
12228;SDS011;6177;52.402;9.800;2023-09-30T10:40:26;4.57;;;1.70;;
12228;SDS011;6177;52.402;9.800;2023-09-30T10:42:52;3.65;;;1.67;;
12228;SDS011;6177;52.402;9.800;2023-09-30T10:50:52;4.18;;;1.95;;
12228;SDS011;6177;52.402;9.800;2023-09-30T10:53:20;4.85;;;1.77;;
12228;SDS011;6177;52.402;9.800;2023-09-30T10:55:46;4.47;;;1.77;;
12228;SDS011;6177;52.402;9.800;2023-09-30T10:58:15;5.85;;;1.75;;
12228;SDS011;6177;52.402;9.800;2023-09-30T11:00:58;3.42;;;1.67;;
12228;SDS011;6177;52.402;9.800;2023-09-30T11:03:24;2.80;;;1.50;;
12228;SDS011;6177;52.402;9.800;2023-09-30T11:05:50;3.15;;;2.00;;
12228;SDS011;6177;52.402;9.800;2023-09-30T11:08:20;3.40;;;1.70;;
12228;SDS011;6177;52.402;9.800;2023-09-30T11:10:51;2.72;;;1.42;;
12228;SDS011;6177;52.402;9.800;2023-09-30T11:13:18;2.17;;;1.27;;
12228;SDS011;6177;52.402;9.800;2023-09-30T11:15:44;1.75;;;1.35;;
12228;SDS011;6177;52.402;9.800;2023-09-30T11:18:14;3.85;;;1.40;;
12228;SDS011;6177;52.402;9.800;2023-09-30T11:20:40;2.35;;;1.67;;
12228;SDS011;6177;52.402;9.800;2023-09-30T11:23:06;3.45;;;1.38;;
12228;SDS011;6177;52.402;9.800;2023-09-30T11:25:36;2.65;;;1.40;;
12228;SDS011;6177;52.402;9.800;2023-09-30T11:28:16;4.65;;;1.73;;
12228;SDS011;6177;52.402;9.800;2023-09-30T11:33:23;2.67;;;1.13;;
12228;SDS011;6177;52.402;9.800;2023-09-30T11:38:34;1.38;;;1.17;;
12228;SDS011;6177;52.402;9.800;2023-09-30T11:41:01;2.25;;;1.45;;
12228;SDS011;6177;52.402;9.800;2023-09-30T11:43:28;1.58;;;1.30;;
12228;SDS011;6177;52.402;9.800;2023-09-30T11:46:04;1.77;;;1.38;;
12228;SDS011;6177;52.402;9.800;2023-09-30T11:48:37;2.50;;;1.13;;
12228;SDS011;6177;52.402;9.800;2023-09-30T11:51:03;2.05;;;1.20;;
12228;SDS011;6177;52.402;9.800;2023-09-30T11:53:29;2.80;;;1.50;;
12228;SDS011;6177;52.402;9.800;2023-09-30T11:55:59;1.58;;;1.23;;
12228;SDS011;6177;52.402;9.800;2023-09-30T11:58:32;2.75;;;1.35;;
12228;SDS011;6177;52.402;9.800;2023-09-30T12:00:58;1.65;;;1.27;;
12228;SDS011;6177;52.402;9.800;2023-09-30T12:03:25;2.13;;;1.55;;
12228;SDS011;6177;52.402;9.800;2023-09-30T12:05:53;2.70;;;1.58;;
12228;SDS011;6177;52.402;9.800;2023-09-30T12:08:20;2.20;;;1.50;;
12228;SDS011;6177;52.402;9.800;2023-09-30T12:10:48;3.35;;;1.58;;
12228;SDS011;6177;52.402;9.800;2023-09-30T12:13:15;4.13;;;1.85;;
12228;SDS011;6177;52.402;9.800;2023-09-30T12:15:41;2.03;;;1.60;;
12228;SDS011;6177;52.402;9.800;2023-09-30T12:18:07;1.75;;;1.02;;
12228;SDS011;6177;52.402;9.800;2023-09-30T12:20:33;2.42;;;1.30;;
12228;SDS011;6177;52.402;9.800;2023-09-30T12:22:58;1.63;;;1.52;;
12228;SDS011;6177;52.402;9.800;2023-09-30T12:25:24;2.85;;;1.80;;
12228;SDS011;6177;52.402;9.800;2023-09-30T12:27:50;1.30;;;1.20;;
12228;SDS011;6177;52.402;9.800;2023-09-30T12:30:16;2.30;;;1.58;;
12228;SDS011;6177;52.402;9.800;2023-09-30T12:32:42;2.42;;;1.52;;
12228;SDS011;6177;52.402;9.800;2023-09-30T12:35:07;1.77;;;1.33;;
12228;SDS011;6177;52.402;9.800;2023-09-30T12:37:33;1.70;;;1.60;;
12228;SDS011;6177;52.402;9.800;2023-09-30T12:39:58;2.25;;;1.33;;
12228;SDS011;6177;52.402;9.800;2023-09-30T12:42:24;2.70;;;1.80;;
12228;SDS011;6177;52.402;9.800;2023-09-30T12:44:49;1.77;;;1.67;;
12228;SDS011;6177;52.402;9.800;2023-09-30T12:47:15;1.67;;;1.30;;
12228;SDS011;6177;52.402;9.800;2023-09-30T12:49:41;2.35;;;1.77;;
12228;SDS011;6177;52.402;9.800;2023-09-30T12:52:07;5.10;;;1.35;;
12228;SDS011;6177;52.402;9.800;2023-09-30T12:54:32;2.40;;;1.75;;
12228;SDS011;6177;52.402;9.800;2023-09-30T12:56:59;2.03;;;1.27;;
12228;SDS011;6177;52.402;9.800;2023-09-30T12:59:25;2.17;;;1.40;;
12228;SDS011;6177;52.402;9.800;2023-09-30T13:01:51;2.72;;;1.55;;
12228;SDS011;6177;52.402;9.800;2023-09-30T13:04:17;1.67;;;1.40;;
12228;SDS011;6177;52.402;9.800;2023-09-30T13:06:43;1.83;;;1.73;;
12228;SDS011;6177;52.402;9.800;2023-09-30T13:09:10;1.55;;;1.45;;
12228;SDS011;6177;52.402;9.800;2023-09-30T13:11:37;4.45;;;1.95;;
12228;SDS011;6177;52.402;9.800;2023-09-30T13:14:02;2.10;;;1.80;;
12228;SDS011;6177;52.402;9.800;2023-09-30T13:16:28;2.15;;;1.95;;
12228;SDS011;6177;52.402;9.800;2023-09-30T13:18:54;2.08;;;1.65;;
12228;SDS011;6177;52.402;9.800;2023-09-30T13:21:19;2.00;;;1.60;;
12228;SDS011;6177;52.402;9.800;2023-09-30T13:23:45;2.67;;;1.60;;
12228;SDS011;6177;52.402;9.800;2023-09-30T13:26:11;3.08;;;2.05;;
12228;SDS011;6177;52.402;9.800;2023-09-30T13:28:36;3.35;;;1.80;;
12228;SDS011;6177;52.402;9.800;2023-09-30T13:31:02;3.63;;;2.00;;
12228;SDS011;6177;52.402;9.800;2023-09-30T13:33:27;2.20;;;2.00;;
12228;SDS011;6177;52.402;9.800;2023-09-30T13:35:53;2.65;;;1.80;;
12228;SDS011;6177;52.402;9.800;2023-09-30T13:38:20;3.40;;;1.85;;
12228;SDS011;6177;52.402;9.800;2023-09-30T13:40:46;2.80;;;2.10;;
12228;SDS011;6177;52.402;9.800;2023-09-30T13:43:11;5.40;;;2.22;;
12228;SDS011;6177;52.402;9.800;2023-09-30T13:45:37;3.00;;;2.10;;
12228;SDS011;6177;52.402;9.800;2023-09-30T13:48:02;2.53;;;2.00;;
12228;SDS011;6177;52.402;9.800;2023-09-30T13:50:28;2.45;;;1.85;;
12228;SDS011;6177;52.402;9.800;2023-09-30T13:52:53;2.08;;;1.98;;
12228;SDS011;6177;52.402;9.800;2023-09-30T13:55:19;3.92;;;2.38;;
12228;SDS011;6177;52.402;9.800;2023-09-30T13:57:45;2.67;;;2.17;;
12228;SDS011;6177;52.402;9.800;2023-09-30T14:00:11;3.13;;;1.90;;
12228;SDS011;6177;52.402;9.800;2023-09-30T14:02:37;3.20;;;2.30;;
12228;SDS011;6177;52.402;9.800;2023-09-30T14:05:03;2.00;;;1.85;;
12228;SDS011;6177;52.402;9.800;2023-09-30T14:07:29;2.42;;;2.08;;
12228;SDS011;6177;52.402;9.800;2023-09-30T14:09:55;2.78;;;2.17;;
12228;SDS011;6177;52.402;9.800;2023-09-30T14:12:20;2.17;;;2.08;;
12228;SDS011;6177;52.402;9.800;2023-09-30T14:14:47;2.63;;;2.17;;
12228;SDS011;6177;52.402;9.800;2023-09-30T14:17:12;2.35;;;1.90;;
12228;SDS011;6177;52.402;9.800;2023-09-30T14:19:40;2.50;;;2.30;;
12228;SDS011;6177;52.402;9.800;2023-09-30T14:22:06;2.47;;;2.05;;
12228;SDS011;6177;52.402;9.800;2023-09-30T14:24:34;1.85;;;1.75;;
12228;SDS011;6177;52.402;9.800;2023-09-30T14:27:01;3.75;;;2.17;;
12228;SDS011;6177;52.402;9.800;2023-09-30T14:29:26;3.63;;;1.70;;
12228;SDS011;6177;52.402;9.800;2023-09-30T14:31:53;2.55;;;1.63;;
12228;SDS011;6177;52.402;9.800;2023-09-30T14:34:19;3.53;;;1.80;;
12228;SDS011;6177;52.402;9.800;2023-09-30T14:36:44;1.70;;;1.60;;
12228;SDS011;6177;52.402;9.800;2023-09-30T14:39:10;2.47;;;1.70;;
12228;SDS011;6177;52.402;9.800;2023-09-30T14:41:36;3.65;;;1.88;;
12228;SDS011;6177;52.402;9.800;2023-09-30T14:44:01;2.53;;;1.98;;
12228;SDS011;6177;52.402;9.800;2023-09-30T14:46:33;3.25;;;1.70;;
12228;SDS011;6177;52.402;9.800;2023-09-30T14:48:59;2.92;;;2.10;;
12228;SDS011;6177;52.402;9.800;2023-09-30T14:51:25;1.77;;;1.63;;
12228;SDS011;6177;52.402;9.800;2023-09-30T14:53:51;3.47;;;1.95;;
12228;SDS011;6177;52.402;9.800;2023-09-30T14:56:17;3.08;;;1.90;;
12228;SDS011;6177;52.402;9.800;2023-09-30T14:58:43;1.65;;;1.48;;
12228;SDS011;6177;52.402;9.800;2023-09-30T15:01:09;2.80;;;2.10;;
12228;SDS011;6177;52.402;9.800;2023-09-30T15:03:35;4.05;;;2.17;;
12228;SDS011;6177;52.402;9.800;2023-09-30T15:06:02;2.17;;;1.98;;
12228;SDS011;6177;52.402;9.800;2023-09-30T15:08:29;3.90;;;1.80;;
12228;SDS011;6177;52.402;9.800;2023-09-30T15:10:57;1.85;;;1.67;;
12228;SDS011;6177;52.402;9.800;2023-09-30T15:13:24;2.22;;;2.03;;
12228;SDS011;6177;52.402;9.800;2023-09-30T15:15:50;1.85;;;1.75;;
12228;SDS011;6177;52.402;9.800;2023-09-30T15:18:15;3.38;;;1.80;;
12228;SDS011;6177;52.402;9.800;2023-09-30T15:20:41;2.25;;;2.05;;
12228;SDS011;6177;52.402;9.800;2023-09-30T15:23:07;2.55;;;1.95;;
12228;SDS011;6177;52.402;9.800;2023-09-30T15:25:32;2.92;;;2.08;;